Trimbelle, Wisconsin
Current Conditions -  °F | °C
As of 6:11 PM on Thursday 27 Nov 2014 (Local Time) from KRGK Reporting Station
Clear Clear  
Wind Chill:   Ceiling: Unl
Heat Index:   Visibility: 10mi
Dew Point: -2°   Wind: 0mph
Humidity: 67%   Direction: NA
Pressure: 30.39"   Gusts: NA
Location:  44.7206°N, 92.4859°W
Report Text: KRGK 280011Z AUTO 00000KT 10SM CLR M14/M19 A3039 RMK AO2
Loading
Personal Weather Stations






























Interactive Weather Map New forecast layout! Learn more

10-Day Weather Forecast

Advertisements
Track Severe Weather on mobile